sensor_id;sensor_type;location;lat;lon;timestamp;pressure;altitude;pressure_sealevel;temperature;humidity
7524;BME280;3803;51.666;7.630;2023-01-31T00:00:04;101778.25;;;6.23;58.34
7524;BME280;3803;51.666;7.630;2023-01-31T00:00:27;101765.44;;;6.11;58.48
7524;BME280;3803;51.666;7.630;2023-01-31T00:00:47;101762.94;;;6.12;58.57
7524;BME280;3803;51.666;7.630;2023-01-31T00:01:34;101775.22;;;6.15;58.53
7524;BME280;3803;51.666;7.630;2023-01-31T00:01:55;101771.13;;;6.05;58.93
7524;BME280;3803;51.666;7.630;2023-01-31T00:02:15;101770.97;;;6.02;58.59
7524;BME280;3803;51.666;7.630;2023-01-31T00:02:51;101753.50;;;5.99;58.38
7524;BME280;3803;51.666;7.630;2023-01-31T00:03:12;101758.47;;;5.96;58.59
7524;BME280;3803;51.666;7.630;2023-01-31T00:03:32;101763.34;;;6.05;58.35
7524;BME280;3803;51.666;7.630;2023-01-31T00:03:54;101768.66;;;6.07;58.70
7524;BME280;3803;51.666;7.630;2023-01-31T00:04:15;101766.88;;;6.06;58.64
7524;BME280;3803;51.666;7.630;2023-01-31T00:04:36;101769.06;;;5.99;58.82
7524;BME280;3803;51.666;7.630;2023-01-31T00:04:57;101761.06;;;5.96;58.81
7524;BME280;3803;51.666;7.630;2023-01-31T00:05:18;101762.41;;;5.89;59.42
7524;BME280;3803;51.666;7.630;2023-01-31T00:05:39;101776.72;;;5.98;59.19
7524;BME280;3803;51.666;7.630;2023-01-31T00:06:42;101763.47;;;5.93;59.08
7524;BME280;3803;51.666;7.630;2023-01-31T00:07:03;101769.25;;;6.02;59.12
7524;BME280;3803;51.666;7.630;2023-01-31T00:07:24;101762.09;;;5.98;59.19
7524;BME280;3803;51.666;7.630;2023-01-31T00:07:45;101757.09;;;6.01;59.19
7524;BME280;3803;51.666;7.630;2023-01-31T00:08:06;101767.44;;;6.01;59.23
7524;BME280;3803;51.666;7.630;2023-01-31T00:08:27;101762.97;;;5.99;58.93
7524;BME280;3803;51.666;7.630;2023-01-31T00:08:49;101762.38;;;6.03;58.62
7524;BME280;3803;51.666;7.630;2023-01-31T00:09:11;101752.41;;;5.96;58.80
7524;BME280;3803;51.666;7.630;2023-01-31T00:09:32;101762.28;;;6.01;58.86
7524;BME280;3803;51.666;7.630;2023-01-31T00:09:52;101752.22;;;5.93;59.04
7524;BME280;3803;51.666;7.630;2023-01-31T00:10:13;101758.13;;;5.90;58.79
7524;BME280;3803;51.666;7.630;2023-01-31T00:10:35;101767.28;;;5.98;59.11
7524;BME280;3803;51.666;7.630;2023-01-31T00:10:58;101766.47;;;5.86;59.44
7524;BME280;3803;51.666;7.630;2023-01-31T00:11:21;101767.75;;;5.93;59.31
7524;BME280;3803;51.666;7.630;2023-01-31T00:11:42;101774.25;;;5.99;59.08
7524;BME280;3803;51.666;7.630;2023-01-31T00:12:02;101765.28;;;5.94;59.25
7524;BME280;3803;51.666;7.630;2023-01-31T00:12:23;101764.88;;;5.88;59.47
7524;BME280;3803;51.666;7.630;2023-01-31T00:12:44;101783.53;;;5.96;59.20
7524;BME280;3803;51.666;7.630;2023-01-31T00:13:04;101760.44;;;5.85;59.60
7524;BME280;3803;51.666;7.630;2023-01-31T00:13:27;101777.63;;;5.98;59.07
7524;BME280;3803;51.666;7.630;2023-01-31T00:13:49;101775.84;;;5.97;59.12
7524;BME280;3803;51.666;7.630;2023-01-31T00:14:16;101763.31;;;5.90;59.71
7524;BME280;3803;51.666;7.630;2023-01-31T00:14:37;101771.38;;;5.95;59.21
7524;BME280;3803;51.666;7.630;2023-01-31T00:14:57;101774.66;;;5.92;59.24
7524;BME280;3803;51.666;7.630;2023-01-31T00:15:19;101772.88;;;5.91;59.32
7524;BME280;3803;51.666;7.630;2023-01-31T00:15:39;101775.63;;;5.94;59.44
7524;BME280;3803;51.666;7.630;2023-01-31T00:16:00;101752.94;;;5.90;59.44
7524;BME280;3803;51.666;7.630;2023-01-31T00:16:22;101773.03;;;5.94;59.25
7524;BME280;3803;51.666;7.630;2023-01-31T00:16:43;101760.00;;;5.93;59.32
7524;BME280;3803;51.666;7.630;2023-01-31T00:17:03;101771.97;;;5.91;59.32
7524;BME280;3803;51.666;7.630;2023-01-31T00:17:24;101755.25;;;5.85;59.21
7524;BME280;3803;51.666;7.630;2023-01-31T00:17:44;101771.84;;;5.89;59.13
7524;BME280;3803;51.666;7.630;2023-01-31T00:18:05;101761.00;;;5.81;59.14
7524;BME280;3803;51.666;7.630;2023-01-31T00:18:26;101758.44;;;5.81;59.50
7524;BME280;3803;51.666;7.630;2023-01-31T00:18:47;101778.63;;;5.87;58.95
7524;BME280;3803;51.666;7.630;2023-01-31T00:19:08;101759.13;;;5.79;59.18
7524;BME280;3803;51.666;7.630;2023-01-31T00:19:28;101762.69;;;5.81;59.33
7524;BME280;3803;51.666;7.630;2023-01-31T00:19:49;101768.91;;;5.83;59.17
7524;BME280;3803;51.666;7.630;2023-01-31T00:20:10;101771.50;;;5.83;59.62
7524;BME280;3803;51.666;7.630;2023-01-31T00:20:31;101764.31;;;5.79;59.17
7524;BME280;3803;51.666;7.630;2023-01-31T00:20:52;101763.13;;;5.73;59.37
7524;BME280;3803;51.666;7.630;2023-01-31T00:21:14;101770.00;;;5.73;59.40
7524;BME280;3803;51.666;7.630;2023-01-31T00:21:35;101761.72;;;5.65;59.83
7524;BME280;3803;51.666;7.630;2023-01-31T00:21:56;101770.50;;;5.67;59.54
7524;BME280;3803;51.666;7.630;2023-01-31T00:22:17;101762.13;;;5.71;59.45
7524;BME280;3803;51.666;7.630;2023-01-31T00:22:37;101760.72;;;5.63;59.84
7524;BME280;3803;51.666;7.630;2023-01-31T00:22:58;101768.91;;;5.69;59.91
7524;BME280;3803;51.666;7.630;2023-01-31T00:23:19;101745.19;;;5.63;60.01
7524;BME280;3803;51.666;7.630;2023-01-31T00:23:41;101759.22;;;5.67;59.92
7524;BME280;3803;51.666;7.630;2023-01-31T00:24:02;101757.25;;;5.63;60.23
7524;BME280;3803;51.666;7.630;2023-01-31T00:24:24;101765.31;;;5.67;60.13
7524;BME280;3803;51.666;7.630;2023-01-31T00:24:45;101766.31;;;5.69;60.04
7524;BME280;3803;51.666;7.630;2023-01-31T00:25:06;101767.28;;;5.71;60.19
7524;BME280;3803;51.666;7.630;2023-01-31T00:25:27;101761.72;;;5.65;59.87
7524;BME280;3803;51.666;7.630;2023-01-31T00:25:48;101767.22;;;5.56;60.25
7524;BME280;3803;51.666;7.630;2023-01-31T00:26:22;101779.44;;;5.72;60.04
7524;BME280;3803;51.666;7.630;2023-01-31T00:26:43;101777.88;;;5.74;60.25
7524;BME280;3803;51.666;7.630;2023-01-31T00:27:04;101775.56;;;5.66;60.33
7524;BME280;3803;51.666;7.630;2023-01-31T00:27:24;101768.31;;;5.73;59.93
7524;BME280;3803;51.666;7.630;2023-01-31T00:27:46;101771.59;;;5.71;60.37
7524;BME280;3803;51.666;7.630;2023-01-31T00:28:06;101761.72;;;5.65;60.10
7524;BME280;3803;51.666;7.630;2023-01-31T00:28:28;101781.63;;;5.80;59.85
7524;BME280;3803;51.666;7.630;2023-01-31T00:28:50;101779.66;;;5.75;60.09
7524;BME280;3803;51.666;7.630;2023-01-31T00:29:12;101767.28;;;5.71;60.29
7524;BME280;3803;51.666;7.630;2023-01-31T00:29:32;101771.97;;;5.77;59.88
7524;BME280;3803;51.666;7.630;2023-01-31T00:29:53;101768.31;;;5.73;60.21
7524;BME280;3803;51.666;7.630;2023-01-31T00:30:14;101772.69;;;5.74;60.54
7524;BME280;3803;51.666;7.630;2023-01-31T00:30:34;101779.16;;;5.81;60.52
7524;BME280;3803;51.666;7.630;2023-01-31T00:30:57;101780.06;;;5.82;60.32
7524;BME280;3803;51.666;7.630;2023-01-31T00:31:20;101772.06;;;5.92;60.32
7524;BME280;3803;51.666;7.630;2023-01-31T00:31:43;101768.50;;;5.90;60.32
7524;BME280;3803;51.666;7.630;2023-01-31T00:32:04;101774.31;;;6.01;60.35
7524;BME280;3803;51.666;7.630;2023-01-31T00:32:24;101768.97;;;5.98;59.96
7524;BME280;3803;51.666;7.630;2023-01-31T00:32:46;101762.28;;;6.01;60.05
7524;BME280;3803;51.666;7.630;2023-01-31T00:33:06;101764.97;;;6.03;59.75
7524;BME280;3803;51.666;7.630;2023-01-31T00:33:27;101764.06;;;6.02;59.79
7524;BME280;3803;51.666;7.630;2023-01-31T00:33:49;101778.50;;;6.12;59.83
7524;BME280;3803;51.666;7.630;2023-01-31T00:34:10;101770.63;;;6.11;59.85
7524;BME280;3803;51.666;7.630;2023-01-31T00:34:31;101758.47;;;6.10;59.67
7524;BME280;3803;51.666;7.630;2023-01-31T00:34:52;101758.28;;;6.07;59.47
7524;BME280;3803;51.666;7.630;2023-01-31T00:35:13;101758.88;;;6.02;59.56
7524;BME280;3803;51.666;7.630;2023-01-31T00:35:38;101761.16;;;6.11;59.64
7524;BME280;3803;51.666;7.630;2023-01-31T00:36:04;101760.19;;;6.09;59.88
7524;BME280;3803;51.666;7.630;2023-01-31T00:36:28;101774.88;;;6.24;59.96
7524;BME280;3803;51.666;7.630;2023-01-31T00:36:50;101772.00;;;6.19;59.72
7524;BME280;3803;51.666;7.630;2023-01-31T00:37:11;101762.44;;;6.18;59.38
7524;BME280;3803;51.666;7.630;2023-01-31T00:37:32;101763.06;;;6.14;59.62
7524;BME280;3803;51.666;7.630;2023-01-31T00:37:53;101758.28;;;6.07;59.48
7524;BME280;3803;51.666;7.630;2023-01-31T00:38:13;101761.97;;;6.10;59.85
7524;BME280;3803;51.666;7.630;2023-01-31T00:38:34;101773.06;;;6.23;59.45
7524;BME280;3803;51.666;7.630;2023-01-31T00:38:57;101766.91;;;6.21;59.43
7524;BME280;3803;51.666;7.630;2023-01-31T00:39:18;101760.75;;;6.19;59.78
7524;BME280;3803;51.666;7.630;2023-01-31T00:39:38;101779.34;;;6.26;59.53
7524;BME280;3803;51.666;7.630;2023-01-31T00:39:59;101764.41;;;6.22;59.34
7524;BME280;3803;51.666;7.630;2023-01-31T00:40:20;101766.28;;;6.25;59.13
7524;BME280;3803;51.666;7.630;2023-01-31T00:40:41;101759.84;;;6.18;59.47
7524;BME280;3803;51.666;7.630;2023-01-31T00:41:02;101770.59;;;6.24;59.42
7524;BME280;3803;51.666;7.630;2023-01-31T00:41:25;101775.59;;;6.21;59.70
7524;BME280;3803;51.666;7.630;2023-01-31T00:41:46;101777.13;;;6.33;59.63
7524;BME280;3803;51.666;7.630;2023-01-31T00:42:07;101764.41;;;6.22;59.68
7524;BME280;3803;51.666;7.630;2023-01-31T00:42:27;101767.09;;;6.24;59.54
7524;BME280;3803;51.666;7.630;2023-01-31T00:42:48;101768.09;;;6.26;59.63
7524;BME280;3803;51.666;7.630;2023-01-31T00:43:09;101766.28;;;6.25;59.61
7524;BME280;3803;51.666;7.630;2023-01-31T00:43:31;101784.22;;;6.35;59.73
7524;BME280;3803;51.666;7.630;2023-01-31T00:43:52;101759.25;;;6.22;59.41
7524;BME280;3803;51.666;7.630;2023-01-31T00:44:12;101753.25;;;6.23;59.86
7524;BME280;3803;51.666;7.630;2023-01-31T00:44:33;101772.38;;;6.25;59.60
7524;BME280;3803;51.666;7.630;2023-01-31T00:44:53;101756.25;;;6.16;59.65
7524;BME280;3803;51.666;7.630;2023-01-31T00:45:14;101768.41;;;6.17;59.61
7524;BME280;3803;51.666;7.630;2023-01-31T00:45:35;101754.47;;;6.15;59.43
7524;BME280;3803;51.666;7.630;2023-01-31T00:45:56;101751.66;;;6.12;59.45
7524;BME280;3803;51.666;7.630;2023-01-31T00:46:18;101757.75;;;6.12;59.68
7524;BME280;3803;51.666;7.630;2023-01-31T00:46:43;101754.09;;;6.09;59.95
7524;BME280;3803;51.666;7.630;2023-01-31T00:47:04;101771.28;;;6.22;59.55
7524;BME280;3803;51.666;7.630;2023-01-31T00:47:24;101756.69;;;6.09;59.52
7524;BME280;3803;51.666;7.630;2023-01-31T00:47:45;101754.09;;;6.09;59.83
7524;BME280;3803;51.666;7.630;2023-01-31T00:48:06;101750.13;;;6.00;59.91
7524;BME280;3803;51.666;7.630;2023-01-31T00:48:26;101742.44;;;6.02;59.38
7524;BME280;3803;51.666;7.630;2023-01-31T00:48:47;101770.44;;;6.08;59.70
7524;BME280;3803;51.666;7.630;2023-01-31T00:49:08;101753.50;;;5.99;60.04
7524;BME280;3803;51.666;7.630;2023-01-31T00:49:28;101755.00;;;5.96;59.94
7524;BME280;3803;51.666;7.630;2023-01-31T00:49:49;101755.31;;;6.00;59.82
7524;BME280;3803;51.666;7.630;2023-01-31T00:50:13;101756.91;;;5.98;59.88
7524;BME280;3803;51.666;7.630;2023-01-31T00:50:34;101759.78;;;6.03;59.71
7524;BME280;3803;51.666;7.630;2023-01-31T00:50:54;101738.50;;;5.94;59.84
7524;BME280;3803;51.666;7.630;2023-01-31T00:51:15;101748.94;;;5.95;59.96
7524;BME280;3803;51.666;7.630;2023-01-31T00:51:36;101744.75;;;5.97;59.71
7524;BME280;3803;51.666;7.630;2023-01-31T00:51:57;101774.63;;;6.06;59.91
7524;BME280;3803;51.666;7.630;2023-01-31T00:52:18;101755.72;;;5.93;60.26
7524;BME280;3803;51.666;7.630;2023-01-31T00:52:40;101753.31;;;5.96;60.10
7524;BME280;3803;51.666;7.630;2023-01-31T00:53:01;101769.47;;;6.06;60.26
7524;BME280;3803;51.666;7.630;2023-01-31T00:53:22;101752.22;;;5.93;59.94
7524;BME280;3803;51.666;7.630;2023-01-31T00:53:43;101751.84;;;5.86;60.09
7524;BME280;3803;51.666;7.630;2023-01-31T00:54:04;101758.47;;;5.96;60.32
7524;BME280;3803;51.666;7.630;2023-01-31T00:54:24;101755.13;;;5.97;60.36
7524;BME280;3803;51.666;7.630;2023-01-31T00:54:45;101758.41;;;5.95;60.28
7524;BME280;3803;51.666;7.630;2023-01-31T00:55:07;101749.56;;;5.91;59.98
7524;BME280;3803;51.666;7.630;2023-01-31T00:55:28;101754.34;;;5.85;59.98
7524;BME280;3803;51.666;7.630;2023-01-31T00:55:50;101761.81;;;5.94;60.15
7524;BME280;3803;51.666;7.630;2023-01-31T00:56:13;101759.81;;;5.89;60.10
7524;BME280;3803;51.666;7.630;2023-01-31T00:56:35;101740.56;;;5.86;60.07
7524;BME280;3803;51.666;7.630;2023-01-31T00:56:57;101750.94;;;5.86;60.41
7524;BME280;3803;51.666;7.630;2023-01-31T00:57:18;101747.53;;;5.87;60.10
7524;BME280;3803;51.666;7.630;2023-01-31T00:57:39;101748.06;;;5.81;60.53
7524;BME280;3803;51.666;7.630;2023-01-31T00:57:59;101753.34;;;5.83;59.99
7524;BME280;3803;51.666;7.630;2023-01-31T00:58:21;101761.69;;;5.92;60.41
7524;BME280;3803;51.666;7.630;2023-01-31T00:58:41;101749.72;;;5.94;60.42
7524;BME280;3803;51.666;7.630;2023-01-31T00:59:03;101747.53;;;5.87;60.28
7524;BME280;3803;51.666;7.630;2023-01-31T00:59:27;101751.22;;;5.91;60.31
7524;BME280;3803;51.666;7.630;2023-01-31T00:59:48;101762.78;;;5.96;60.32
7524;BME280;3803;51.666;7.630;2023-01-31T01:00:10;101742.78;;;5.80;60.10
7524;BME280;3803;51.666;7.630;2023-01-31T01:00:31;101746.38;;;5.82;60.10
7524;BME280;3803;51.666;7.630;2023-01-31T01:00:51;101757.03;;;5.86;59.94
7524;BME280;3803;51.666;7.630;2023-01-31T01:01:16;101752.16;;;5.78;59.91
7524;BME280;3803;51.666;7.630;2023-01-31T01:01:39;101764.88;;;5.88;60.17
7524;BME280;3803;51.666;7.630;2023-01-31T01:02:00;101757.50;;;5.81;60.24
7524;BME280;3803;51.666;7.630;2023-01-31T01:02:20;101755.94;;;5.83;60.11
7524;BME280;3803;51.666;7.630;2023-01-31T01:02:41;101746.00;;;5.75;60.41
7524;BME280;3803;51.666;7.630;2023-01-31T01:03:01;101751.16;;;5.75;60.33
7524;BME280;3803;51.666;7.630;2023-01-31T01:03:22;101750.88;;;5.71;60.02
7524;BME280;3803;51.666;7.630;2023-01-31T01:03:44;101750.19;;;5.73;60.16
7524;BME280;3803;51.666;7.630;2023-01-31T01:04:05;101760.03;;;5.79;60.25
7524;BME280;3803;51.666;7.630;2023-01-31T01:04:27;101748.19;;;5.69;60.26
7524;BME280;3803;51.666;7.630;2023-01-31T01:04:48;101756.41;;;5.77;60.11
7524;BME280;3803;51.666;7.630;2023-01-31T01:05:08;101751.97;;;5.74;59.91
7524;BME280;3803;51.666;7.630;2023-01-31T01:05:29;101769.47;;;5.79;60.68
7524;BME280;3803;51.666;7.630;2023-01-31T01:05:50;101761.31;;;5.72;60.43
7524;BME280;3803;51.666;7.630;2023-01-31T01:06:11;101748.19;;;5.69;60.51
7524;BME280;3803;51.666;7.630;2023-01-31T01:06:32;101755.53;;;5.77;60.79
7524;BME280;3803;51.666;7.630;2023-01-31T01:06:52;101766.78;;;5.77;60.66
7524;BME280;3803;51.666;7.630;2023-01-31T01:07:14;101768.59;;;5.78;60.71
7524;BME280;3803;51.666;7.630;2023-01-31T01:07:34;101757.50;;;5.81;60.29
7524;BME280;3803;51.666;7.630;2023-01-31T01:07:55;101757.50;;;5.81;60.85
7524;BME280;3803;51.666;7.630;2023-01-31T01:08:17;101759.53;;;5.85;60.49
7524;BME280;3803;51.666;7.630;2023-01-31T01:08:39;101770.28;;;5.91;60.66
7524;BME280;3803;51.666;7.630;2023-01-31T01:09:02;101756.41;;;5.91;60.63
7524;BME280;3803;51.666;7.630;2023-01-31T01:09:22;101768.78;;;5.95;60.28
7524;BME280;3803;51.666;7.630;2023-01-31T01:09:43;101758.47;;;5.96;60.38
7524;BME280;3803;51.666;7.630;2023-01-31T01:10:05;101762.16;;;6.00;60.43
7524;BME280;3803;51.666;7.630;2023-01-31T01:10:26;101766.75;;;6.04;60.26
7524;BME280;3803;51.666;7.630;2023-01-31T01:10:46;101763.06;;;6.00;60.15
7524;BME280;3803;51.666;7.630;2023-01-31T01:11:16;101756.00;;;5.98;60.70
7524;BME280;3803;51.666;7.630;2023-01-31T01:11:37;101758.69;;;5.99;60.36
7524;BME280;3803;51.666;7.630;2023-01-31T01:11:58;101762.16;;;6.00;60.17
7524;BME280;3803;51.666;7.630;2023-01-31T01:12:18;101770.16;;;6.03;60.15
7524;BME280;3803;51.666;7.630;2023-01-31T01:12:39;101761.84;;;6.09;59.83
7524;BME280;3803;51.666;7.630;2023-01-31T01:13:01;101756.00;;;5.98;60.00
7524;BME280;3803;51.666;7.630;2023-01-31T01:13:22;101766.38;;;5.98;60.03
7524;BME280;3803;51.666;7.630;2023-01-31T01:13:44;101751.50;;;5.95;59.89
7524;BME280;3803;51.666;7.630;2023-01-31T01:14:05;101751.50;;;5.95;59.90
7524;BME280;3803;51.666;7.630;2023-01-31T01:14:25;101758.69;;;5.99;60.18
7524;BME280;3803;51.666;7.630;2023-01-31T01:14:46;101745.34;;;5.93;59.96
7524;BME280;3803;51.666;7.630;2023-01-31T01:15:07;101767.16;;;5.97;59.88
7524;BME280;3803;51.666;7.630;2023-01-31T01:15:27;101761.19;;;5.98;59.90
7524;BME280;3803;51.666;7.630;2023-01-31T01:15:48;101758.69;;;5.99;59.73
7524;BME280;3803;51.666;7.630;2023-01-31T01:16:16;101755.19;;;5.99;59.99
7524;BME280;3803;51.666;7.630;2023-01-31T01:16:40;101768.66;;;5.93;60.26
7524;BME280;3803;51.666;7.630;2023-01-31T01:17:01;101768.84;;;5.96;59.94
7524;BME280;3803;51.666;7.630;2023-01-31T01:17:22;101775.84;;;5.97;60.41
7524;BME280;3803;51.666;7.630;2023-01-31T01:17:42;101763.66;;;5.96;60.09
7524;BME280;3803;51.666;7.630;2023-01-31T01:18:03;101773.25;;;5.97;60.10
7524;BME280;3803;51.666;7.630;2023-01-31T01:18:24;101762.69;;;5.81;60.05
7524;BME280;3803;51.666;7.630;2023-01-31T01:18:45;101763.72;;;5.83;60.82
7524;BME280;3803;51.666;7.630;2023-01-31T01:19:11;101761.94;;;5.82;60.50
7524;BME280;3803;51.666;7.630;2023-01-31T01:19:32;101761.31;;;5.86;60.73
7524;BME280;3803;51.666;7.630;2023-01-31T01:19:53;101764.19;;;5.91;60.16
7524;BME280;3803;51.666;7.630;2023-01-31T01:20:14;101767.88;;;5.94;60.56
7524;BME280;3803;51.666;7.630;2023-01-31T01:20:35;101761.06;;;5.96;60.55
7524;BME280;3803;51.666;7.630;2023-01-31T01:20:55;101764.56;;;5.97;60.67
7524;BME280;3803;51.666;7.630;2023-01-31T01:21:20;101761.88;;;5.95;60.91
7524;BME280;3803;51.666;7.630;2023-01-31T01:21:41;101769.94;;;6.00;60.67
7524;BME280;3803;51.666;7.630;2023-01-31T01:22:03;101754.38;;;6.00;60.53
7524;BME280;3803;51.666;7.630;2023-01-31T01:22:24;101754.31;;;5.98;60.13
7524;BME280;3803;51.666;7.630;2023-01-31T01:22:45;101742.34;;;6.00;60.52
7524;BME280;3803;51.666;7.630;2023-01-31T01:23:05;101758.88;;;6.02;60.31
7524;BME280;3803;51.666;7.630;2023-01-31T01:23:26;101751.31;;;6.06;60.07
7524;BME280;3803;51.666;7.630;2023-01-31T01:23:48;101766.41;;;6.13;60.25
7524;BME280;3803;51.666;7.630;2023-01-31T01:24:16;101758.97;;;6.04;60.29
7524;BME280;3803;51.666;7.630;2023-01-31T01:24:37;101759.25;;;6.09;60.12
7524;BME280;3803;51.666;7.630;2023-01-31T01:24:57;101759.16;;;6.07;60.15
7524;BME280;3803;51.666;7.630;2023-01-31T01:25:19;101773.03;;;6.08;60.36
7524;BME280;3803;51.666;7.630;2023-01-31T01:25:42;101767.44;;;6.15;60.36
7524;BME280;3803;51.666;7.630;2023-01-31T01:26:03;101755.88;;;6.10;60.02
7524;BME280;3803;51.666;7.630;2023-01-31T01:26:30;101759.66;;;6.15;59.89
7524;BME280;3803;51.666;7.630;2023-01-31T01:26:51;101753.38;;;6.11;59.75
7524;BME280;3803;51.666;7.630;2023-01-31T01:27:12;101764.91;;;6.16;59.91
7524;BME280;3803;51.666;7.630;2023-01-31T01:27:33;101747.13;;;6.08;60.27
7524;BME280;3803;51.666;7.630;2023-01-31T01:27:53;101760.63;;;6.17;59.71
7524;BME280;3803;51.666;7.630;2023-01-31T01:28:14;101753.66;;;6.16;59.70
7524;BME280;3803;51.666;7.630;2023-01-31T01:28:35;101761.06;;;6.10;60.10
7524;BME280;3803;51.666;7.630;2023-01-31T01:28:57;101751.06;;;6.16;60.10
7524;BME280;3803;51.666;7.630;2023-01-31T01:29:17;101750.88;;;6.13;60.08
7524;BME280;3803;51.666;7.630;2023-01-31T01:29:38;101743.19;;;6.14;60.10
7524;BME280;3803;51.666;7.630;2023-01-31T01:29:59;101755.63;;;6.20;59.94
7524;BME280;3803;51.666;7.630;2023-01-31T01:30:21;101747.69;;;6.17;60.33
7524;BME280;3803;51.666;7.630;2023-01-31T01:30:42;101764.59;;;6.25;59.79
7524;BME280;3803;51.666;7.630;2023-01-31T01:31:05;101744.09;;;6.15;60.33
7524;BME280;3803;51.666;7.630;2023-01-31T01:31:27;101747.69;;;6.17;60.12
7524;BME280;3803;51.666;7.630;2023-01-31T01:31:51;101752.34;;;6.23;60.38
7524;BME280;3803;51.666;7.630;2023-01-31T01:32:12;101762.56;;;6.35;60.53
7524;BME280;3803;51.666;7.630;2023-01-31T01:32:32;101749.81;;;6.38;60.25
7524;BME280;3803;51.666;7.630;2023-01-31T01:32:53;101740.03;;;6.34;60.25
7524;BME280;3803;51.666;7.630;2023-01-31T01:33:15;101738.63;;;6.39;59.83
7524;BME280;3803;51.666;7.630;2023-01-31T01:33:36;101753.13;;;6.50;59.68
7524;BME280;3803;51.666;7.630;2023-01-31T01:33:57;101751.50;;;6.52;59.67
7524;BME280;3803;51.666;7.630;2023-01-31T01:34:18;101746.78;;;6.45;59.47
7524;BME280;3803;51.666;7.630;2023-01-31T01:34:39;101739.00;;;6.45;59.56
7524;BME280;3803;51.666;7.630;2023-01-31T01:35:00;101763.50;;;6.50;59.31
7524;BME280;3803;51.666;7.630;2023-01-31T01:35:20;101738.81;;;6.42;59.63
7524;BME280;3803;51.666;7.630;2023-01-31T01:35:41;101747.50;;;6.42;59.63
7524;BME280;3803;51.666;7.630;2023-01-31T01:36:07;101752.19;;;6.35;59.28
7524;BME280;3803;51.666;7.630;2023-01-31T01:36:31;101727.59;;;6.28;59.53
7524;BME280;3803;51.666;7.630;2023-01-31T01:36:53;101745.22;;;6.34;59.41
7524;BME280;3803;51.666;7.630;2023-01-31T01:37:14;101729.50;;;6.30;59.22
7524;BME280;3803;51.666;7.630;2023-01-31T01:37:39;101742.34;;;6.29;59.29
7524;BME280;3803;51.666;7.630;2023-01-31T01:38:00;101744.84;;;6.27;58.96
7524;BME280;3803;51.666;7.630;2023-01-31T01:38:22;101741.16;;;6.24;59.42
7524;BME280;3803;51.666;7.630;2023-01-31T01:38:44;101731.03;;;6.13;59.06
7524;BME280;3803;51.666;7.630;2023-01-31T01:39:06;101731.75;;;6.11;59.39
7524;BME280;3803;51.666;7.630;2023-01-31T01:39:28;101742.81;;;6.08;59.39
7524;BME280;3803;51.666;7.630;2023-01-31T01:39:50;101736.53;;;6.05;59.51
7524;BME280;3803;51.666;7.630;2023-01-31T01:40:11;101745.31;;;6.07;59.53
7524;BME280;3803;51.666;7.630;2023-01-31T01:40:36;101743.53;;;6.06;59.56
7524;BME280;3803;51.666;7.630;2023-01-31T01:40:57;101743.31;;;6.02;59.78
7524;BME280;3803;51.666;7.630;2023-01-31T01:41:18;101753.09;;;6.07;59.87
7524;BME280;3803;51.666;7.630;2023-01-31T01:41:40;101747.00;;;6.06;59.75
7524;BME280;3803;51.666;7.630;2023-01-31T01:42:02;101747.41;;;5.99;60.08
7524;BME280;3803;51.666;7.630;2023-01-31T01:42:24;101746.72;;;6.01;59.87
7524;BME280;3803;51.666;7.630;2023-01-31T01:42:45;101742.25;;;5.99;59.80
7524;BME280;3803;51.666;7.630;2023-01-31T01:43:09;101738.78;;;5.98;60.08
7524;BME280;3803;51.666;7.630;2023-01-31T01:43:57;101765.16;;;6.06;60.03
7524;BME280;3803;51.666;7.630;2023-01-31T01:45:08;101761.19;;;5.98;60.28
7524;BME280;3803;51.666;7.630;2023-01-31T01:45:36;101765.59;;;5.85;60.12
7524;BME280;3803;51.666;7.630;2023-01-31T01:45:56;101746.28;;;5.80;60.19
7524;BME280;3803;51.666;7.630;2023-01-31T01:46:50;101770.28;;;5.91;60.15
7524;BME280;3803;51.666;7.630;2023-01-31T01:47:56;101760.91;;;5.80;60.52
7524;BME280;3803;51.666;7.630;2023-01-31T01:48:19;101757.50;;;5.81;60.34
7524;BME280;3803;51.666;7.630;2023-01-31T01:48:41;101753.34;;;5.83;60.59
7524;BME280;3803;51.666;7.630;2023-01-31T01:49:18;101754.72;;;5.91;60.57
7524;BME280;3803;51.666;7.630;2023-01-31T01:49:41;101766.25;;;5.96;60.66
7524;BME280;3803;51.666;7.630;2023-01-31T01:50:07;101743.66;;;5.94;60.49
7524;BME280;3803;51.666;7.630;2023-01-31T01:50:35;101746.75;;;5.88;61.13
7524;BME280;3803;51.666;7.630;2023-01-31T01:51:01;101740.75;;;5.89;60.68
7524;BME280;3803;51.666;7.630;2023-01-31T01:51:23;101742.19;;;5.84;61.20
7524;BME280;3803;51.666;7.630;2023-01-31T01:51:47;101768.97;;;5.98;61.01
7524;BME280;3803;51.666;7.630;2023-01-31T01:52:10;101749.50;;;6.05;60.88
7524;BME280;3803;51.666;7.630;2023-01-31T01:52:34;101758.75;;;6.14;61.06
7524;BME280;3803;51.666;7.630;2023-01-31T01:53:18;101758.75;;;6.14;60.98
7524;BME280;3803;51.666;7.630;2023-01-31T01:53:41;101741.59;;;6.16;60.89
7524;BME280;3803;51.666;7.630;2023-01-31T01:54:06;101747.09;;;6.21;60.42
7524;BME280;3803;51.666;7.630;2023-01-31T01:54:36;101741.78;;;6.20;60.43
7524;BME280;3803;51.666;7.630;2023-01-31T01:55:05;101752.72;;;6.29;60.57
7524;BME280;3803;51.666;7.630;2023-01-31T01:55:53;101756.22;;;6.29;60.19
7524;BME280;3803;51.666;7.630;2023-01-31T01:56:19;101760.31;;;6.26;59.86
7524;BME280;3803;51.666;7.630;2023-01-31T01:56:45;101741.09;;;6.22;59.82
7524;BME280;3803;51.666;7.630;2023-01-31T01:57:07;101746.34;;;6.24;59.68
7524;BME280;3803;51.666;7.630;2023-01-31T01:57:34;101737.47;;;6.20;60.14
7524;BME280;3803;51.666;7.630;2023-01-31T01:58:00;101762.00;;;6.25;59.46
7524;BME280;3803;51.666;7.630;2023-01-31T01:58:30;101744.97;;;6.15;59.48
7524;BME280;3803;51.666;7.630;2023-01-31T01:59:19;101756.78;;;6.10;59.94
7524;BME280;3803;51.666;7.630;2023-01-31T01:59:47;101734.56;;;6.00;60.05
7524;BME280;3803;51.666;7.630;2023-01-31T02:00:20;101748.72;;;6.06;60.08
7524;BME280;3803;51.666;7.630;2023-01-31T02:00:42;101736.53;;;6.05;60.32
7524;BME280;3803;51.666;7.630;2023-01-31T02:01:05;101735.66;;;6.04;59.80
7524;BME280;3803;51.666;7.630;2023-01-31T02:01:29;101723.00;;;5.95;60.14
7524;BME280;3803;51.666;7.630;2023-01-31T02:01:51;101735.44;;;6.01;60.13
7524;BME280;3803;51.666;7.630;2023-01-31T02:02:15;101740.56;;;5.99;60.28
7524;BME280;3803;51.666;7.630;2023-01-31T02:02:36;101750.41;;;6.05;60.04
7524;BME280;3803;51.666;7.630;2023-01-31T02:02:59;101740.06;;;5.92;60.08
7524;BME280;3803;51.666;7.630;2023-01-31T02:03:21;101746.16;;;5.92;60.36
7524;BME280;3803;51.666;7.630;2023-01-31T02:03:43;101744.03;;;6.00;60.05
7524;BME280;3803;51.666;7.630;2023-01-31T02:04:06;101754.50;;;6.01;59.97